sensor_id;sensor_type;location;lat;lon;timestamp;P1;durP1;ratioP1;P2;durP2;ratioP2
8092;SDS011;4089;52.420;13.334;2023-05-20T00:02:08;21.93;;;4.00;;
8092;SDS011;4089;52.420;13.334;2023-05-20T00:04:34;24.27;;;4.90;;
8092;SDS011;4089;52.420;13.334;2023-05-20T00:07:01;22.70;;;4.27;;
8092;SDS011;4089;52.420;13.334;2023-05-20T00:09:29;20.77;;;3.70;;
8092;SDS011;4089;52.420;13.334;2023-05-20T00:11:55;22.67;;;4.20;;
8092;SDS011;4089;52.420;13.334;2023-05-20T00:14:22;26.97;;;4.37;;
8092;SDS011;4089;52.420;13.334;2023-05-20T00:16:49;21.03;;;3.70;;
8092;SDS011;4089;52.420;13.334;2023-05-20T00:19:16;40.50;;;5.20;;
8092;SDS011;4089;52.420;13.334;2023-05-20T00:21:43;24.27;;;4.40;;
8092;SDS011;4089;52.420;13.334;2023-05-20T00:24:10;24.07;;;4.30;;
8092;SDS011;4089;52.420;13.334;2023-05-20T00:26:36;24.80;;;4.70;;
8092;SDS011;4089;52.420;13.334;2023-05-20T00:29:03;21.63;;;3.63;;
8092;SDS011;4089;52.420;13.334;2023-05-20T00:31:30;22.87;;;4.37;;
8092;SDS011;4089;52.420;13.334;2023-05-20T00:33:57;27.83;;;5.30;;
8092;SDS011;4089;52.420;13.334;2023-05-20T00:36:24;24.33;;;4.83;;
8092;SDS011;4089;52.420;13.334;2023-05-20T00:38:51;23.47;;;4.33;;
8092;SDS011;4089;52.420;13.334;2023-05-20T00:41:17;27.80;;;5.00;;
8092;SDS011;4089;52.420;13.334;2023-05-20T00:43:44;24.47;;;4.20;;
8092;SDS011;4089;52.420;13.334;2023-05-20T00:46:11;25.23;;;4.40;;
8092;SDS011;4089;52.420;13.334;2023-05-20T00:48:39;22.97;;;3.90;;
8092;SDS011;4089;52.420;13.334;2023-05-20T00:51:09;25.27;;;4.43;;
8092;SDS011;4089;52.420;13.334;2023-05-20T00:53:36;25.60;;;4.40;;
8092;SDS011;4089;52.420;13.334;2023-05-20T00:56:04;25.20;;;4.07;;
8092;SDS011;4089;52.420;13.334;2023-05-20T00:58:32;24.23;;;4.23;;
8092;SDS011;4089;52.420;13.334;2023-05-20T01:01:01;23.53;;;4.33;;
8092;SDS011;4089;52.420;13.334;2023-05-20T01:03:28;23.90;;;4.33;;
8092;SDS011;4089;52.420;13.334;2023-05-20T01:05:55;25.67;;;5.77;;
8092;SDS011;4089;52.420;13.334;2023-05-20T01:08:22;24.83;;;4.10;;
8092;SDS011;4089;52.420;13.334;2023-05-20T01:10:54;23.83;;;4.07;;
8092;SDS011;4089;52.420;13.334;2023-05-20T01:13:27;26.07;;;3.93;;
8092;SDS011;4089;52.420;13.334;2023-05-20T01:15:59;25.37;;;4.27;;
8092;SDS011;4089;52.420;13.334;2023-05-20T01:18:29;24.67;;;4.30;;
8092;SDS011;4089;52.420;13.334;2023-05-20T01:20:57;25.40;;;4.57;;
8092;SDS011;4089;52.420;13.334;2023-05-20T01:23:37;23.70;;;4.37;;
8092;SDS011;4089;52.420;13.334;2023-05-20T01:26:07;24.90;;;4.73;;
8092;SDS011;4089;52.420;13.334;2023-05-20T01:28:39;25.13;;;4.70;;
8092;SDS011;4089;52.420;13.334;2023-05-20T01:31:19;26.80;;;4.60;;
8092;SDS011;4089;52.420;13.334;2023-05-20T01:33:57;26.43;;;4.43;;
8092;SDS011;4089;52.420;13.334;2023-05-20T01:36:24;30.53;;;4.60;;
8092;SDS011;4089;52.420;13.334;2023-05-20T01:38:53;32.30;;;5.10;;
8092;SDS011;4089;52.420;13.334;2023-05-20T01:41:21;26.67;;;4.27;;
8092;SDS011;4089;52.420;13.334;2023-05-20T01:43:50;28.97;;;5.47;;
8092;SDS011;4089;52.420;13.334;2023-05-20T01:46:17;30.53;;;4.57;;
8092;SDS011;4089;52.420;13.334;2023-05-20T01:48:44;26.37;;;4.50;;
8092;SDS011;4089;52.420;13.334;2023-05-20T01:51:11;37.83;;;5.27;;
8092;SDS011;4089;52.420;13.334;2023-05-20T01:53:37;31.00;;;4.30;;
8092;SDS011;4089;52.420;13.334;2023-05-20T01:56:04;31.70;;;5.43;;
8092;SDS011;4089;52.420;13.334;2023-05-20T01:58:31;27.57;;;4.80;;
8092;SDS011;4089;52.420;13.334;2023-05-20T02:00:58;26.90;;;5.30;;
8092;SDS011;4089;52.420;13.334;2023-05-20T02:03:25;28.70;;;5.10;;
8092;SDS011;4089;52.420;13.334;2023-05-20T02:05:52;28.57;;;5.30;;
8092;SDS011;4089;52.420;13.334;2023-05-20T02:08:19;27.70;;;4.97;;
8092;SDS011;4089;52.420;13.334;2023-05-20T02:10:48;27.87;;;4.87;;
8092;SDS011;4089;52.420;13.334;2023-05-20T02:13:15;27.10;;;5.17;;
8092;SDS011;4089;52.420;13.334;2023-05-20T02:15:42;24.70;;;4.70;;
8092;SDS011;4089;52.420;13.334;2023-05-20T02:18:09;31.17;;;5.33;;
8092;SDS011;4089;52.420;13.334;2023-05-20T02:20:37;29.07;;;5.00;;
8092;SDS011;4089;52.420;13.334;2023-05-20T02:23:04;32.53;;;5.40;;
8092;SDS011;4089;52.420;13.334;2023-05-20T02:25:31;30.07;;;5.43;;
8092;SDS011;4089;52.420;13.334;2023-05-20T02:27:59;28.20;;;5.43;;
8092;SDS011;4089;52.420;13.334;2023-05-20T02:30:26;29.63;;;5.10;;
8092;SDS011;4089;52.420;13.334;2023-05-20T02:32:53;29.40;;;5.23;;
8092;SDS011;4089;52.420;13.334;2023-05-20T02:35:20;27.97;;;5.20;;
8092;SDS011;4089;52.420;13.334;2023-05-20T02:37:46;24.97;;;4.53;;
8092;SDS011;4089;52.420;13.334;2023-05-20T02:40:13;26.37;;;4.80;;
8092;SDS011;4089;52.420;13.334;2023-05-20T02:42:40;26.00;;;5.40;;
8092;SDS011;4089;52.420;13.334;2023-05-20T02:45:07;32.63;;;4.80;;
8092;SDS011;4089;52.420;13.334;2023-05-20T02:47:34;28.90;;;5.40;;
8092;SDS011;4089;52.420;13.334;2023-05-20T02:50:01;27.90;;;4.47;;
8092;SDS011;4089;52.420;13.334;2023-05-20T02:52:28;26.17;;;4.40;;
8092;SDS011;4089;52.420;13.334;2023-05-20T02:54:55;25.30;;;5.00;;
8092;SDS011;4089;52.420;13.334;2023-05-20T02:57:22;26.13;;;5.30;;
8092;SDS011;4089;52.420;13.334;2023-05-20T02:59:48;29.83;;;6.93;;
8092;SDS011;4089;52.420;13.334;2023-05-20T03:02:15;23.93;;;5.13;;
8092;SDS011;4089;52.420;13.334;2023-05-20T03:04:42;28.13;;;4.70;;
8092;SDS011;4089;52.420;13.334;2023-05-20T03:07:12;29.37;;;4.43;;
8092;SDS011;4089;52.420;13.334;2023-05-20T03:09:39;29.30;;;5.77;;
8092;SDS011;4089;52.420;13.334;2023-05-20T03:12:07;26.77;;;5.73;;
8092;SDS011;4089;52.420;13.334;2023-05-20T03:14:33;26.80;;;5.20;;
8092;SDS011;4089;52.420;13.334;2023-05-20T03:17:00;26.57;;;6.00;;
8092;SDS011;4089;52.420;13.334;2023-05-20T03:19:27;29.43;;;5.00;;
8092;SDS011;4089;52.420;13.334;2023-05-20T03:21:54;27.07;;;5.47;;
8092;SDS011;4089;52.420;13.334;2023-05-20T03:24:21;25.40;;;4.80;;
8092;SDS011;4089;52.420;13.334;2023-05-20T03:26:48;28.70;;;5.60;;
8092;SDS011;4089;52.420;13.334;2023-05-20T03:29:15;28.50;;;5.43;;
8092;SDS011;4089;52.420;13.334;2023-05-20T03:31:43;27.00;;;5.30;;
8092;SDS011;4089;52.420;13.334;2023-05-20T03:34:10;25.27;;;5.33;;
8092;SDS011;4089;52.420;13.334;2023-05-20T03:36:37;29.37;;;6.60;;
8092;SDS011;4089;52.420;13.334;2023-05-20T03:39:04;32.10;;;6.40;;
8092;SDS011;4089;52.420;13.334;2023-05-20T03:41:31;25.57;;;5.03;;
8092;SDS011;4089;52.420;13.334;2023-05-20T03:43:58;23.87;;;5.20;;
8092;SDS011;4089;52.420;13.334;2023-05-20T03:46:25;26.87;;;5.53;;
8092;SDS011;4089;52.420;13.334;2023-05-20T03:48:51;24.47;;;5.50;;
8092;SDS011;4089;52.420;13.334;2023-05-20T03:51:18;25.80;;;5.87;;
8092;SDS011;4089;52.420;13.334;2023-05-20T03:53:45;27.90;;;6.20;;
8092;SDS011;4089;52.420;13.334;2023-05-20T03:56:12;24.30;;;5.30;;
8092;SDS011;4089;52.420;13.334;2023-05-20T03:58:39;27.43;;;6.27;;
8092;SDS011;4089;52.420;13.334;2023-05-20T04:01:06;25.33;;;5.10;;
8092;SDS011;4089;52.420;13.334;2023-05-20T04:03:32;26.37;;;5.53;;
8092;SDS011;4089;52.420;13.334;2023-05-20T04:05:59;31.83;;;6.07;;
8092;SDS011;4089;52.420;13.334;2023-05-20T04:08:26;25.80;;;6.07;;
8092;SDS011;4089;52.420;13.334;2023-05-20T04:10:56;27.03;;;5.70;;
8092;SDS011;4089;52.420;13.334;2023-05-20T04:13:23;26.43;;;5.27;;
8092;SDS011;4089;52.420;13.334;2023-05-20T04:15:51;27.77;;;6.60;;
8092;SDS011;4089;52.420;13.334;2023-05-20T04:18:18;26.80;;;5.83;;
8092;SDS011;4089;52.420;13.334;2023-05-20T04:20:45;25.40;;;6.33;;
8092;SDS011;4089;52.420;13.334;2023-05-20T04:23:12;23.80;;;5.40;;
8092;SDS011;4089;52.420;13.334;2023-05-20T04:25:39;23.53;;;5.00;;
8092;SDS011;4089;52.420;13.334;2023-05-20T04:28:07;25.93;;;6.60;;
8092;SDS011;4089;52.420;13.334;2023-05-20T04:30:35;27.53;;;5.93;;
8092;SDS011;4089;52.420;13.334;2023-05-20T04:33:03;26.13;;;6.20;;
8092;SDS011;4089;52.420;13.334;2023-05-20T04:35:31;28.97;;;5.87;;
8092;SDS011;4089;52.420;13.334;2023-05-20T04:38:00;29.80;;;6.50;;
8092;SDS011;4089;52.420;13.334;2023-05-20T04:40:27;30.73;;;7.13;;
8092;SDS011;4089;52.420;13.334;2023-05-20T04:42:54;25.50;;;6.17;;
8092;SDS011;4089;52.420;13.334;2023-05-20T04:45:24;25.80;;;5.70;;
8092;SDS011;4089;52.420;13.334;2023-05-20T04:47:51;28.73;;;6.40;;
8092;SDS011;4089;52.420;13.334;2023-05-20T04:50:18;25.20;;;6.37;;
8092;SDS011;4089;52.420;13.334;2023-05-20T04:52:46;30.23;;;6.13;;
8092;SDS011;4089;52.420;13.334;2023-05-20T04:55:13;27.37;;;6.57;;
8092;SDS011;4089;52.420;13.334;2023-05-20T04:57:41;25.83;;;6.37;;
8092;SDS011;4089;52.420;13.334;2023-05-20T05:00:09;27.93;;;5.80;;
8092;SDS011;4089;52.420;13.334;2023-05-20T05:02:37;27.00;;;6.03;;
8092;SDS011;4089;52.420;13.334;2023-05-20T05:05:04;37.23;;;6.67;;
8092;SDS011;4089;52.420;13.334;2023-05-20T05:07:32;31.63;;;6.60;;
8092;SDS011;4089;52.420;13.334;2023-05-20T05:09:59;32.80;;;6.47;;
8092;SDS011;4089;52.420;13.334;2023-05-20T05:12:26;36.87;;;7.07;;
8092;SDS011;4089;52.420;13.334;2023-05-20T05:14:53;23.70;;;5.70;;
8092;SDS011;4089;52.420;13.334;2023-05-20T05:17:20;31.93;;;6.60;;
8092;SDS011;4089;52.420;13.334;2023-05-20T05:19:46;30.03;;;6.57;;
8092;SDS011;4089;52.420;13.334;2023-05-20T05:22:13;31.40;;;6.77;;
8092;SDS011;4089;52.420;13.334;2023-05-20T05:24:40;24.90;;;5.33;;
8092;SDS011;4089;52.420;13.334;2023-05-20T05:27:07;27.50;;;6.40;;
8092;SDS011;4089;52.420;13.334;2023-05-20T05:29:33;27.53;;;6.57;;
8092;SDS011;4089;52.420;13.334;2023-05-20T05:32:00;31.87;;;7.73;;
8092;SDS011;4089;52.420;13.334;2023-05-20T05:34:27;30.07;;;7.30;;
8092;SDS011;4089;52.420;13.334;2023-05-20T05:36:54;35.03;;;6.60;;
8092;SDS011;4089;52.420;13.334;2023-05-20T05:39:21;30.10;;;6.43;;
8092;SDS011;4089;52.420;13.334;2023-05-20T05:41:48;31.57;;;7.33;;
8092;SDS011;4089;52.420;13.334;2023-05-20T05:44:14;30.70;;;7.00;;
8092;SDS011;4089;52.420;13.334;2023-05-20T05:46:41;24.90;;;6.20;;
8092;SDS011;4089;52.420;13.334;2023-05-20T05:49:08;26.27;;;6.40;;
8092;SDS011;4089;52.420;13.334;2023-05-20T05:51:35;27.57;;;7.17;;
8092;SDS011;4089;52.420;13.334;2023-05-20T05:54:04;30.40;;;7.10;;
8092;SDS011;4089;52.420;13.334;2023-05-20T05:56:31;26.07;;;6.53;;
8092;SDS011;4089;52.420;13.334;2023-05-20T05:58:57;31.27;;;7.40;;
8092;SDS011;4089;52.420;13.334;2023-05-20T06:01:24;28.80;;;7.00;;
8092;SDS011;4089;52.420;13.334;2023-05-20T06:03:51;28.33;;;7.67;;
8092;SDS011;4089;52.420;13.334;2023-05-20T06:06:19;30.03;;;7.30;;
8092;SDS011;4089;52.420;13.334;2023-05-20T06:08:45;30.07;;;7.27;;
8092;SDS011;4089;52.420;13.334;2023-05-20T06:11:12;27.97;;;6.90;;
8092;SDS011;4089;52.420;13.334;2023-05-20T06:13:39;24.37;;;6.03;;
8092;SDS011;4089;52.420;13.334;2023-05-20T06:16:06;29.77;;;7.50;;
8092;SDS011;4089;52.420;13.334;2023-05-20T06:18:33;28.90;;;7.40;;
8092;SDS011;4089;52.420;13.334;2023-05-20T06:21:00;32.30;;;7.30;;
8092;SDS011;4089;52.420;13.334;2023-05-20T06:23:27;27.47;;;7.40;;
8092;SDS011;4089;52.420;13.334;2023-05-20T06:25:57;29.10;;;6.83;;
8092;SDS011;4089;52.420;13.334;2023-05-20T06:28:25;31.97;;;7.30;;
8092;SDS011;4089;52.420;13.334;2023-05-20T06:30:53;25.70;;;7.20;;
8092;SDS011;4089;52.420;13.334;2023-05-20T06:33:21;24.50;;;6.57;;
8092;SDS011;4089;52.420;13.334;2023-05-20T06:35:51;29.03;;;7.87;;
8092;SDS011;4089;52.420;13.334;2023-05-20T06:38:19;36.17;;;8.90;;
8092;SDS011;4089;52.420;13.334;2023-05-20T06:40:46;24.70;;;7.20;;
8092;SDS011;4089;52.420;13.334;2023-05-20T06:43:16;35.37;;;7.63;;
8092;SDS011;4089;52.420;13.334;2023-05-20T06:45:43;28.23;;;7.50;;
8092;SDS011;4089;52.420;13.334;2023-05-20T06:48:10;35.47;;;8.27;;
8092;SDS011;4089;52.420;13.334;2023-05-20T06:50:37;32.97;;;8.37;;
8092;SDS011;4089;52.420;13.334;2023-05-20T06:53:04;33.60;;;7.23;;
8092;SDS011;4089;52.420;13.334;2023-05-20T06:55:31;29.80;;;7.57;;
8092;SDS011;4089;52.420;13.334;2023-05-20T06:57:58;30.67;;;7.30;;
8092;SDS011;4089;52.420;13.334;2023-05-20T07:00:25;28.67;;;7.23;;
8092;SDS011;4089;52.420;13.334;2023-05-20T07:02:52;27.50;;;8.10;;
8092;SDS011;4089;52.420;13.334;2023-05-20T07:05:19;26.63;;;7.30;;
8092;SDS011;4089;52.420;13.334;2023-05-20T07:07:45;27.07;;;7.50;;
8092;SDS011;4089;52.420;13.334;2023-05-20T07:10:12;32.70;;;7.63;;
8092;SDS011;4089;52.420;13.334;2023-05-20T07:12:39;29.47;;;8.27;;
8092;SDS011;4089;52.420;13.334;2023-05-20T07:15:06;29.57;;;7.73;;
8092;SDS011;4089;52.420;13.334;2023-05-20T07:17:33;28.07;;;8.27;;
8092;SDS011;4089;52.420;13.334;2023-05-20T07:20:01;31.27;;;8.33;;
8092;SDS011;4089;52.420;13.334;2023-05-20T07:22:29;28.20;;;7.60;;
8092;SDS011;4089;52.420;13.334;2023-05-20T07:24:56;28.23;;;7.57;;
8092;SDS011;4089;52.420;13.334;2023-05-20T07:27:24;27.13;;;7.60;;
8092;SDS011;4089;52.420;13.334;2023-05-20T07:29:51;29.20;;;7.40;;
8092;SDS011;4089;52.420;13.334;2023-05-20T07:32:18;26.20;;;6.73;;
8092;SDS011;4089;52.420;13.334;2023-05-20T07:34:44;28.83;;;7.67;;
8092;SDS011;4089;52.420;13.334;2023-05-20T07:37:11;29.67;;;7.70;;
8092;SDS011;4089;52.420;13.334;2023-05-20T07:39:38;28.20;;;7.43;;
8092;SDS011;4089;52.420;13.334;2023-05-20T07:42:05;33.30;;;7.77;;
8092;SDS011;4089;52.420;13.334;2023-05-20T07:44:32;26.37;;;6.93;;
8092;SDS011;4089;52.420;13.334;2023-05-20T07:46:58;28.33;;;7.70;;
8092;SDS011;4089;52.420;13.334;2023-05-20T07:49:26;27.63;;;6.80;;
8092;SDS011;4089;52.420;13.334;2023-05-20T07:51:52;28.10;;;6.40;;
8092;SDS011;4089;52.420;13.334;2023-05-20T07:54:19;26.30;;;6.10;;
8092;SDS011;4089;52.420;13.334;2023-05-20T07:56:46;25.37;;;6.33;;
8092;SDS011;4089;52.420;13.334;2023-05-20T07:59:13;24.90;;;6.83;;
8092;SDS011;4089;52.420;13.334;2023-05-20T08:01:40;24.00;;;5.87;;
8092;SDS011;4089;52.420;13.334;2023-05-20T08:04:07;24.20;;;5.63;;
8092;SDS011;4089;52.420;13.334;2023-05-20T08:06:34;28.43;;;7.07;;
8092;SDS011;4089;52.420;13.334;2023-05-20T08:09:01;35.20;;;6.33;;
8092;SDS011;4089;52.420;13.334;2023-05-20T08:11:29;29.50;;;6.60;;
8092;SDS011;4089;52.420;13.334;2023-05-20T08:13:55;28.70;;;6.00;;
8092;SDS011;4089;52.420;13.334;2023-05-20T08:16:22;25.27;;;5.87;;
8092;SDS011;4089;52.420;13.334;2023-05-20T08:18:49;28.80;;;7.17;;
8092;SDS011;4089;52.420;13.334;2023-05-20T08:21:16;26.20;;;6.33;;
8092;SDS011;4089;52.420;13.334;2023-05-20T08:23:43;30.17;;;6.73;;
8092;SDS011;4089;52.420;13.334;2023-05-20T08:26:10;24.67;;;6.07;;
8092;SDS011;4089;52.420;13.334;2023-05-20T08:28:37;25.37;;;6.50;;
8092;SDS011;4089;52.420;13.334;2023-05-20T08:31:04;24.63;;;5.40;;
8092;SDS011;4089;52.420;13.334;2023-05-20T08:33:31;26.33;;;5.93;;
8092;SDS011;4089;52.420;13.334;2023-05-20T08:35:57;24.53;;;5.83;;
8092;SDS011;4089;52.420;13.334;2023-05-20T08:38:24;26.60;;;6.40;;
8092;SDS011;4089;52.420;13.334;2023-05-20T08:40:52;27.10;;;7.47;;
8092;SDS011;4089;52.420;13.334;2023-05-20T08:43:21;29.00;;;5.90;;
8092;SDS011;4089;52.420;13.334;2023-05-20T08:45:48;26.53;;;6.60;;
8092;SDS011;4089;52.420;13.334;2023-05-20T08:48:18;28.13;;;7.40;;
8092;SDS011;4089;52.420;13.334;2023-05-20T08:50:48;25.13;;;7.10;;
8092;SDS011;4089;52.420;13.334;2023-05-20T08:53:16;25.17;;;6.60;;
8092;SDS011;4089;52.420;13.334;2023-05-20T08:55:51;23.10;;;6.40;;
8092;SDS011;4089;52.420;13.334;2023-05-20T08:58:26;24.63;;;6.70;;
8092;SDS011;4089;52.420;13.334;2023-05-20T09:00:57;27.00;;;6.43;;
8092;SDS011;4089;52.420;13.334;2023-05-20T09:03:24;27.07;;;6.37;;
8092;SDS011;4089;52.420;13.334;2023-05-20T09:05:51;23.13;;;6.10;;
8092;SDS011;4089;52.420;13.334;2023-05-20T09:08:19;29.20;;;7.10;;
8092;SDS011;4089;52.420;13.334;2023-05-20T09:10:53;28.13;;;6.67;;
8092;SDS011;4089;52.420;13.334;2023-05-20T09:13:20;30.70;;;7.83;;
8092;SDS011;4089;52.420;13.334;2023-05-20T09:15:49;25.57;;;6.20;;
8092;SDS011;4089;52.420;13.334;2023-05-20T09:18:16;27.20;;;6.93;;
8092;SDS011;4089;52.420;13.334;2023-05-20T09:20:45;26.77;;;6.80;;
8092;SDS011;4089;52.420;13.334;2023-05-20T09:23:12;26.60;;;6.60;;
8092;SDS011;4089;52.420;13.334;2023-05-20T09:25:39;30.60;;;7.30;;
8092;SDS011;4089;52.420;13.334;2023-05-20T09:28:06;30.20;;;8.13;;
8092;SDS011;4089;52.420;13.334;2023-05-20T09:30:34;28.50;;;8.17;;
8092;SDS011;4089;52.420;13.334;2023-05-20T09:33:02;33.47;;;7.63;;
8092;SDS011;4089;52.420;13.334;2023-05-20T09:35:33;34.83;;;7.40;;
8092;SDS011;4089;52.420;13.334;2023-05-20T09:38:02;31.10;;;7.17;;
8092;SDS011;4089;52.420;13.334;2023-05-20T09:40:31;31.93;;;7.70;;
8092;SDS011;4089;52.420;13.334;2023-05-20T09:43:00;28.00;;;6.77;;
8092;SDS011;4089;52.420;13.334;2023-05-20T09:45:28;31.80;;;7.40;;
8092;SDS011;4089;52.420;13.334;2023-05-20T09:47:56;29.00;;;8.33;;
8092;SDS011;4089;52.420;13.334;2023-05-20T09:50:23;31.37;;;9.17;;
8092;SDS011;4089;52.420;13.334;2023-05-20T09:52:51;28.30;;;9.10;;
8092;SDS011;4089;52.420;13.334;2023-05-20T09:55:19;34.73;;;9.30;;
8092;SDS011;4089;52.420;13.334;2023-05-20T09:57:47;29.10;;;8.80;;
8092;SDS011;4089;52.420;13.334;2023-05-20T10:00:15;32.17;;;9.30;;
8092;SDS011;4089;52.420;13.334;2023-05-20T10:02:51;30.90;;;9.47;;
8092;SDS011;4089;52.420;13.334;2023-05-20T10:05:20;29.43;;;9.43;;
8092;SDS011;4089;52.420;13.334;2023-05-20T10:18:24;34.33;;;10.17;;
8092;SDS011;4089;52.420;13.334;2023-05-20T10:20:58;31.73;;;10.00;;
8092;SDS011;4089;52.420;13.334;2023-05-20T10:23:27;29.23;;;9.13;;
8092;SDS011;4089;52.420;13.334;2023-05-20T10:25:55;31.13;;;9.93;;
8092;SDS011;4089;52.420;13.334;2023-05-20T10:28:29;28.47;;;9.60;;
8092;SDS011;4089;52.420;13.334;2023-05-20T10:30:58;29.00;;;9.83;;
8092;SDS011;4089;52.420;13.334;2023-05-20T10:33:26;29.50;;;8.83;;
8092;SDS011;4089;52.420;13.334;2023-05-20T10:35:57;34.97;;;9.50;;
8092;SDS011;4089;52.420;13.334;2023-05-20T10:38:24;30.47;;;9.20;;
8092;SDS011;4089;52.420;13.334;2023-05-20T10:40:51;29.30;;;9.27;;
8092;SDS011;4089;52.420;13.334;2023-05-20T10:43:25;29.30;;;8.97;;
8092;SDS011;4089;52.420;13.334;2023-05-20T10:45:56;32.40;;;9.53;;
8092;SDS011;4089;52.420;13.334;2023-05-20T10:48:24;29.03;;;8.93;;
8092;SDS011;4089;52.420;13.334;2023-05-20T10:50:55;31.20;;;8.80;;
8092;SDS011;4089;52.420;13.334;2023-05-20T10:53:25;30.03;;;9.03;;
8092;SDS011;4089;52.420;13.334;2023-05-20T10:55:59;27.70;;;8.23;;
8092;SDS011;4089;52.420;13.334;2023-05-20T10:58:26;34.60;;;8.63;;
8092;SDS011;4089;52.420;13.334;2023-05-20T11:00:53;30.90;;;9.40;;
8092;SDS011;4089;52.420;13.334;2023-05-20T11:03:21;28.47;;;8.80;;
8092;SDS011;4089;52.420;13.334;2023-05-20T11:05:49;33.67;;;9.17;;
8092;SDS011;4089;52.420;13.334;2023-05-20T11:08:16;32.23;;;8.80;;
8092;SDS011;4089;52.420;13.334;2023-05-20T11:10:55;38.10;;;9.53;;
8092;SDS011;4089;52.420;13.334;2023-05-20T11:13:22;30.60;;;10.13;;
8092;SDS011;4089;52.420;13.334;2023-05-20T11:15:50;28.83;;;9.03;;
8092;SDS011;4089;52.420;13.334;2023-05-20T11:18:17;31.13;;;10.07;;
8092;SDS011;4089;52.420;13.334;2023-05-20T11:20:45;34.27;;;9.90;;
8092;SDS011;4089;52.420;13.334;2023-05-20T11:23:13;30.33;;;9.07;;
8092;SDS011;4089;52.420;13.334;2023-05-20T11:25:40;37.17;;;10.03;;
8092;SDS011;4089;52.420;13.334;2023-05-20T11:28:13;29.90;;;9.17;;
8092;SDS011;4089;52.420;13.334;2023-05-20T11:30:41;33.90;;;9.90;;
8092;SDS011;4089;52.420;13.334;2023-05-20T11:33:10;32.40;;;10.00;;
8092;SDS011;4089;52.420;13.334;2023-05-20T11:35:43;33.97;;;9.37;;
8092;SDS011;4089;52.420;13.334;2023-05-20T11:38:19;30.80;;;9.70;;
8092;SDS011;4089;52.420;13.334;2023-05-20T11:40:53;30.20;;;9.50;;
8092;SDS011;4089;52.420;13.334;2023-05-20T11:43:22;32.87;;;9.23;;
8092;SDS011;4089;52.420;13.334;2023-05-20T11:45:52;31.23;;;10.50;;
8092;SDS011;4089;52.420;13.334;2023-05-20T11:48:22;30.77;;;9.47;;
8092;SDS011;4089;52.420;13.334;2023-05-20T11:50:49;33.07;;;8.30;;
8092;SDS011;4089;52.420;13.334;2023-05-20T11:53:18;31.40;;;10.07;;
8092;SDS011;4089;52.420;13.334;2023-05-20T11:55:56;34.67;;;8.87;;
8092;SDS011;4089;52.420;13.334;2023-05-20T11:58:24;30.47;;;8.90;;
8092;SDS011;4089;52.420;13.334;2023-05-20T12:00:52;37.00;;;9.20;;
8092;SDS011;4089;52.420;13.334;2023-05-20T12:03:30;28.70;;;8.67;;
8092;SDS011;4089;52.420;13.334;2023-05-20T12:05:59;36.50;;;9.37;;
8092;SDS011;4089;52.420;13.334;2023-05-20T12:08:28;33.37;;;9.13;;
8092;SDS011;4089;52.420;13.334;2023-05-20T12:10:55;29.70;;;9.00;;
8092;SDS011;4089;52.420;13.334;2023-05-20T12:13:22;32.13;;;9.37;;
8092;SDS011;4089;52.420;13.334;2023-05-20T12:15:49;32.87;;;9.60;;
8092;SDS011;4089;52.420;13.334;2023-05-20T12:18:15;31.67;;;9.17;;
8092;SDS011;4089;52.420;13.334;2023-05-20T12:20:42;32.33;;;10.03;;
8092;SDS011;4089;52.420;13.334;2023-05-20T12:23:09;34.30;;;9.70;;
8092;SDS011;4089;52.420;13.334;2023-05-20T12:25:36;36.10;;;10.50;;
8092;SDS011;4089;52.420;13.334;2023-05-20T12:28:03;32.50;;;9.67;;
8092;SDS011;4089;52.420;13.334;2023-05-20T12:30:29;31.60;;;10.00;;
8092;SDS011;4089;52.420;13.334;2023-05-20T12:32:56;29.83;;;8.80;;
8092;SDS011;4089;52.420;13.334;2023-05-20T12:35:25;35.50;;;8.97;;
8092;SDS011;4089;52.420;13.334;2023-05-20T12:38:01;32.10;;;9.80;;
8092;SDS011;4089;52.420;13.334;2023-05-20T12:40:28;31.70;;;9.50;;
8092;SDS011;4089;52.420;13.334;2023-05-20T12:42:55;33.20;;;8.60;;
8092;SDS011;4089;52.420;13.334;2023-05-20T12:45:22;31.37;;;9.53;;
8092;SDS011;4089;52.420;13.334;2023-05-20T12:47:49;34.13;;;9.60;;
8092;SDS011;4089;52.420;13.334;2023-05-20T12:50:16;35.03;;;9.50;;
8092;SDS011;4089;52.420;13.334;2023-05-20T12:52:43;35.70;;;9.50;;
8092;SDS011;4089;52.420;13.334;2023-05-20T12:55:10;30.13;;;9.93;;
8092;SDS011;4089;52.420;13.334;2023-05-20T12:57:41;34.20;;;10.47;;
8092;SDS011;4089;52.420;13.334;2023-05-20T13:00:09;34.67;;;10.10;;
8092;SDS011;4089;52.420;13.334;2023-05-20T13:02:37;28.97;;;8.13;;
8092;SDS011;4089;52.420;13.334;2023-05-20T13:05:05;28.70;;;8.83;;
8092;SDS011;4089;52.420;13.334;2023-05-20T13:07:32;32.93;;;10.10;;
8092;SDS011;4089;52.420;13.334;2023-05-20T13:09:59;36.00;;;9.70;;
8092;SDS011;4089;52.420;13.334;2023-05-20T13:12:26;35.80;;;9.97;;
8092;SDS011;4089;52.420;13.334;2023-05-20T13:14:53;30.70;;;8.90;;
8092;SDS011;4089;52.420;13.334;2023-05-20T13:17:20;33.47;;;8.73;;
8092;SDS011;4089;52.420;13.334;2023-05-20T13:19:47;32.27;;;8.50;;
8092;SDS011;4089;52.420;13.334;2023-05-20T13:22:13;31.70;;;9.10;;
8092;SDS011;4089;52.420;13.334;2023-05-20T13:24:40;30.83;;;9.53;;
8092;SDS011;4089;52.420;13.334;2023-05-20T13:27:07;32.33;;;9.47;;
8092;SDS011;4089;52.420;13.334;2023-05-20T13:29:34;30.57;;;7.73;;
8092;SDS011;4089;52.420;13.334;2023-05-20T13:32:01;32.10;;;8.73;;
8092;SDS011;4089;52.420;13.334;2023-05-20T13:34:29;28.43;;;8.70;;
8092;SDS011;4089;52.420;13.334;2023-05-20T13:36:56;30.00;;;9.20;;
8092;SDS011;4089;52.420;13.334;2023-05-20T13:39:23;32.40;;;9.63;;
8092;SDS011;4089;52.420;13.334;2023-05-20T13:41:50;34.30;;;8.63;;
8092;SDS011;4089;52.420;13.334;2023-05-20T13:44:18;34.50;;;9.50;;
8092;SDS011;4089;52.420;13.334;2023-05-20T13:46:45;31.93;;;9.33;;
8092;SDS011;4089;52.420;13.334;2023-05-20T13:49:12;31.23;;;8.77;;
8092;SDS011;4089;52.420;13.334;2023-05-20T13:51:39;30.10;;;8.90;;
8092;SDS011;4089;52.420;13.334;2023-05-20T13:54:06;32.27;;;9.30;;
8092;SDS011;4089;52.420;13.334;2023-05-20T13:56:33;31.77;;;9.10;;
8092;SDS011;4089;52.420;13.334;2023-05-20T13:58:59;29.00;;;7.97;;
8092;SDS011;4089;52.420;13.334;2023-05-20T14:01:27;31.10;;;8.30;;
8092;SDS011;4089;52.420;13.334;2023-05-20T14:03:55;33.83;;;8.43;;
8092;SDS011;4089;52.420;13.334;2023-05-20T14:06:22;31.37;;;8.30;;
8092;SDS011;4089;52.420;13.334;2023-05-20T14:08:52;30.50;;;8.93;;
8092;SDS011;4089;52.420;13.334;2023-05-20T14:11:19;35.13;;;8.37;;
8092;SDS011;4089;52.420;13.334;2023-05-20T14:13:46;37.30;;;8.17;;
8092;SDS011;4089;52.420;13.334;2023-05-20T14:16:13;30.53;;;7.67;;
8092;SDS011;4089;52.420;13.334;2023-05-20T14:18:40;42.40;;;9.10;;
8092;SDS011;4089;52.420;13.334;2023-05-20T14:21:07;31.17;;;8.17;;
8092;SDS011;4089;52.420;13.334;2023-05-20T14:23:34;35.83;;;7.97;;
8092;SDS011;4089;52.420;13.334;2023-05-20T14:26:01;29.40;;;7.90;;
8092;SDS011;4089;52.420;13.334;2023-05-20T14:28:28;37.57;;;8.17;;
8092;SDS011;4089;52.420;13.334;2023-05-20T14:30:55;33.93;;;8.00;;
8092;SDS011;4089;52.420;13.334;2023-05-20T14:33:21;33.20;;;8.73;;
8092;SDS011;4089;52.420;13.334;2023-05-20T14:35:48;32.97;;;8.80;;
8092;SDS011;4089;52.420;13.334;2023-05-20T14:38:15;34.43;;;9.13;;
8092;SDS011;4089;52.420;13.334;2023-05-20T14:40:43;36.87;;;8.37;;
8092;SDS011;4089;52.420;13.334;2023-05-20T14:43:09;30.40;;;8.07;;
8092;SDS011;4089;52.420;13.334;2023-05-20T14:45:36;31.30;;;9.43;;
8092;SDS011;4089;52.420;13.334;2023-05-20T14:48:03;34.10;;;8.93;;
8092;SDS011;4089;52.420;13.334;2023-05-20T14:50:32;31.97;;;8.37;;
8092;SDS011;4089;52.420;13.334;2023-05-20T14:52:59;30.10;;;8.20;;
8092;SDS011;4089;52.420;13.334;2023-05-20T14:55:25;35.10;;;7.83;;
8092;SDS011;4089;52.420;13.334;2023-05-20T14:57:52;31.03;;;8.50;;
8092;SDS011;4089;52.420;13.334;2023-05-20T15:00:19;29.63;;;8.00;;
8092;SDS011;4089;52.420;13.334;2023-05-20T15:02:46;32.87;;;7.73;;